Terminal Aerodrome Forecast
Issued by NWS

Home | Current Version | Previous Version | Text Only | Print | Product List | Glossary On
Versions: 1 2 3 4 5 6 7 8 9 10 11 12 13 14 15 16 17 18 19 20 21 22
787
FTUS46 KSEW 191419 AAA
TAFBFI
TAF AMD
KBFI 191419Z 1914/2012 00000KT P6SM SCT060 BKN120
     FM191600 16009KT P6SM -RA OVC040
     FM191900 17012G20KT P6SM -SHRA SCT035 BKN050
     FM200500 16010KT P6SM -SHRA BKN040=

USA.gov is the U.S. government's official web portal to all federal, state and local government web resources and services.